sensor_id;sensor_type;location;lat;lon;timestamp;pressure;altitude;pressure_sealevel;temperature;humidity
29045;BME280;16133;49.486;12.176;2023-02-18T00:01:13;97890.41;;;8.81;100.00
29045;BME280;16133;49.486;12.176;2023-02-18T00:03:39;97898.22;;;8.91;100.00
29045;BME280;16133;49.486;12.176;2023-02-18T00:06:23;97895.19;;;8.86;100.00
29045;BME280;16133;49.486;12.176;2023-02-18T00:08:50;97905.78;;;8.86;100.00
29045;BME280;16133;49.486;12.176;2023-02-18T00:11:18;97900.66;;;8.84;100.00
29045;BME280;16133;49.486;12.176;2023-02-18T00:13:51;97902.16;;;8.87;100.00
29045;BME280;16133;49.486;12.176;2023-02-18T00:16:16;97914.09;;;8.91;100.00
29045;BME280;16133;49.486;12.176;2023-02-18T00:18:42;97901.50;;;8.85;100.00
29045;BME280;16133;49.486;12.176;2023-02-18T00:21:07;97900.97;;;8.81;100.00
29045;BME280;16133;49.486;12.176;2023-02-18T00:23:33;97898.63;;;8.78;100.00
29045;BME280;16133;49.486;12.176;2023-02-18T00:26:11;97896.16;;;8.77;100.00
29045;BME280;16133;49.486;12.176;2023-02-18T00:28:37;97895.47;;;8.75;100.00
29045;BME280;16133;49.486;12.176;2023-02-18T00:31:11;97887.91;;;8.80;100.00
29045;BME280;16133;49.486;12.176;2023-02-18T00:33:37;97888.72;;;8.80;100.00
29045;BME280;16133;49.486;12.176;2023-02-18T00:36:04;97886.69;;;8.74;100.00
29045;BME280;16133;49.486;12.176;2023-02-18T00:38:30;97889.88;;;8.78;100.00
29045;BME280;16133;49.486;12.176;2023-02-18T00:40:59;97884.22;;;8.73;100.00
29045;BME280;16133;49.486;12.176;2023-02-18T00:43:25;97887.38;;;8.76;100.00
29045;BME280;16133;49.486;12.176;2023-02-18T00:45:51;97882.56;;;8.72;100.00
29045;BME280;16133;49.486;12.176;2023-02-18T00:48:16;97892.16;;;8.73;100.00
29045;BME280;16133;49.486;12.176;2023-02-18T00:50:42;97893.13;;;8.72;100.00
29045;BME280;16133;49.486;12.176;2023-02-18T00:53:07;97887.06;;;8.79;100.00
29045;BME280;16133;49.486;12.176;2023-02-18T00:55:40;97890.03;;;8.76;100.00
29045;BME280;16133;49.486;12.176;2023-02-18T00:58:06;97893.00;;;8.73;100.00
29045;BME280;16133;49.486;12.176;2023-02-18T01:00:31;97887.31;;;8.68;100.00
29045;BME280;16133;49.486;12.176;2023-02-18T01:02:57;97875.06;;;8.67;100.00
29045;BME280;16133;49.486;12.176;2023-02-18T01:05:22;97887.69;;;8.73;100.00
29045;BME280;16133;49.486;12.176;2023-02-18T01:07:47;97885.84;;;8.66;100.00
29045;BME280;16133;49.486;12.176;2023-02-18T01:10:13;97877.72;;;8.67;100.00
29045;BME280;16133;49.486;12.176;2023-02-18T01:12:38;97877.91;;;8.66;100.00
29045;BME280;16133;49.486;12.176;2023-02-18T01:15:05;97883.72;;;8.69;100.00
29045;BME280;16133;49.486;12.176;2023-02-18T01:17:30;97885.84;;;8.66;100.00
29045;BME280;16133;49.486;12.176;2023-02-18T01:19:56;97881.88;;;8.70;100.00
29045;BME280;16133;49.486;12.176;2023-02-18T01:22:21;97864.44;;;8.59;100.00
29045;BME280;16133;49.486;12.176;2023-02-18T01:24:47;97881.53;;;8.64;100.00
29045;BME280;16133;49.486;12.176;2023-02-18T01:27:13;97881.84;;;8.61;100.00
29045;BME280;16133;49.486;12.176;2023-02-18T01:29:38;97866.13;;;8.60;100.00
29045;BME280;16133;49.486;12.176;2023-02-18T01:32:03;97881.00;;;8.61;100.00
29045;BME280;16133;49.486;12.176;2023-02-18T01:34:29;97873.22;;;8.59;100.00
29045;BME280;16133;49.486;12.176;2023-02-18T01:36:54;97875.91;;;8.68;100.00
29045;BME280;16133;49.486;12.176;2023-02-18T01:39:20;97878.72;;;8.66;100.00
29045;BME280;16133;49.486;12.176;2023-02-18T01:41:45;97877.44;;;8.78;100.00
29045;BME280;16133;49.486;12.176;2023-02-18T01:44:23;97877.94;;;8.74;100.00
29045;BME280;16133;49.486;12.176;2023-02-18T01:46:50;97882.69;;;8.70;100.00
29045;BME280;16133;49.486;12.176;2023-02-18T01:49:20;97879.03;;;8.63;100.00
29045;BME280;16133;49.486;12.176;2023-02-18T01:51:57;97883.72;;;8.69;100.00
29045;BME280;16133;49.486;12.176;2023-02-18T01:54:29;97882.47;;;8.81;100.00
29045;BME280;16133;49.486;12.176;2023-02-18T01:57:32;97887.00;;;8.71;100.00
29045;BME280;16133;49.486;12.176;2023-02-18T02:00:04;97889.84;;;8.70;100.00
29045;BME280;16133;49.486;12.176;2023-02-18T02:02:32;97881.38;;;8.66;100.00
29045;BME280;16133;49.486;12.176;2023-02-18T02:04:59;97873.72;;;8.63;100.00
29045;BME280;16133;49.486;12.176;2023-02-18T02:07:26;97873.06;;;8.61;100.00
29045;BME280;16133;49.486;12.176;2023-02-18T02:09:53;97860.81;;;8.60;100.00
29045;BME280;16133;49.486;12.176;2023-02-18T02:45:22;97781.88;;;8.47;100.00
29045;BME280;16133;49.486;12.176;2023-02-18T02:48:14;97773.94;;;8.39;100.00
29045;BME280;16133;49.486;12.176;2023-02-18T02:50:50;97776.72;;;8.38;100.00
29045;BME280;16133;49.486;12.176;2023-02-18T02:53:27;97768.47;;;8.41;100.00
29045;BME280;16133;49.486;12.176;2023-02-18T02:55:54;97768.47;;;8.41;100.00
29045;BME280;16133;49.486;12.176;2023-02-18T02:58:20;97773.09;;;8.39;100.00
29045;BME280;16133;49.486;12.176;2023-02-18T03:01:20;97763.88;;;8.43;100.00
29045;BME280;16133;49.486;12.176;2023-02-18T03:11:14;97758.13;;;8.55;100.00
29045;BME280;16133;49.486;12.176;2023-02-18T03:16:48;97759.63;;;8.50;100.00
29045;BME280;16133;49.486;12.176;2023-02-18T03:19:22;97748.00;;;8.43;100.00
29045;BME280;16133;49.486;12.176;2023-02-18T03:21:51;97757.75;;;8.42;100.00
29045;BME280;16133;49.486;12.176;2023-02-18T03:24:33;97749.00;;;8.42;100.00
29045;BME280;16133;49.486;12.176;2023-02-18T03:27:22;97740.22;;;8.41;100.00
29045;BME280;16133;49.486;12.176;2023-02-18T03:29:54;97728.81;;;8.41;100.00
29045;BME280;16133;49.486;12.176;2023-02-18T03:32:22;97735.78;;;8.42;100.00
29045;BME280;16133;49.486;12.176;2023-02-18T03:34:53;97734.94;;;8.41;100.00
29045;BME280;16133;49.486;12.176;2023-02-18T03:37:20;97735.41;;;8.37;100.00
29045;BME280;16133;49.486;12.176;2023-02-18T03:39:49;97726.34;;;8.39;100.00
29045;BME280;16133;49.486;12.176;2023-02-18T03:42:16;97727.47;;;8.37;100.00
29045;BME280;16133;49.486;12.176;2023-02-18T03:44:43;97716.91;;;8.37;100.00
29045;BME280;16133;49.486;12.176;2023-02-18T03:47:08;97723.03;;;8.37;100.00
29045;BME280;16133;49.486;12.176;2023-02-18T03:49:35;97710.97;;;8.35;100.00
29045;BME280;16133;49.486;12.176;2023-02-18T03:52:00;97716.91;;;8.37;100.00
29045;BME280;16133;49.486;12.176;2023-02-18T03:54:25;97714.25;;;8.37;100.00
29045;BME280;16133;49.486;12.176;2023-02-18T03:56:51;97708.00;;;8.38;100.00
29045;BME280;16133;49.486;12.176;2023-02-18T03:59:16;97710.97;;;8.35;100.00
29045;BME280;16133;49.486;12.176;2023-02-18T04:01:41;97707.81;;;8.31;100.00
29045;BME280;16133;49.486;12.176;2023-02-18T04:04:07;97711.94;;;8.34;100.00
29045;BME280;16133;49.486;12.176;2023-02-18T04:06:32;97707.47;;;8.34;100.00
29045;BME280;16133;49.486;12.176;2023-02-18T04:08:57;97707.63;;;8.33;100.00
29045;BME280;16133;49.486;12.176;2023-02-18T04:11:23;97703.31;;;8.32;100.00
29045;BME280;16133;49.486;12.176;2023-02-18T04:13:48;97707.81;;;8.31;100.00
29045;BME280;16133;49.486;12.176;2023-02-18T04:16:13;97698.03;;;8.32;100.00
29045;BME280;16133;49.486;12.176;2023-02-18T04:18:39;97704.31;;;8.31;100.00
29045;BME280;16133;49.486;12.176;2023-02-18T04:21:04;97707.81;;;8.31;100.00
29045;BME280;16133;49.486;12.176;2023-02-18T04:23:30;97708.91;;;8.29;100.00
29045;BME280;16133;49.486;12.176;2023-02-18T04:25:55;97709.63;;;8.31;100.00
29045;BME280;16133;49.486;12.176;2023-02-18T04:28:21;97701.00;;;8.29;100.00
29045;BME280;16133;49.486;12.176;2023-02-18T04:30:47;97693.91;;;8.29;100.00
29045;BME280;16133;49.486;12.176;2023-02-18T04:33:12;97701.97;;;8.28;100.00
29045;BME280;16133;49.486;12.176;2023-02-18T04:35:38;97694.03;;;8.28;100.00
29045;BME280;16133;49.486;12.176;2023-02-18T04:38:07;97701.69;;;8.31;100.00
29045;BME280;16133;49.486;12.176;2023-02-18T04:40:33;97694.03;;;8.28;100.00
29045;BME280;16133;49.486;12.176;2023-02-18T04:42:59;97694.84;;;8.28;100.00
29045;BME280;16133;49.486;12.176;2023-02-18T04:45:25;97689.13;;;8.33;100.00
29045;BME280;16133;49.486;12.176;2023-02-18T04:47:51;97684.81;;;8.32;100.00
29045;BME280;16133;49.486;12.176;2023-02-18T04:50:16;97689.13;;;8.33;100.00
29045;BME280;16133;49.486;12.176;2023-02-18T04:52:41;97696.41;;;8.31;100.00
29045;BME280;16133;49.486;12.176;2023-02-18T04:55:07;97691.25;;;8.29;100.00
29045;BME280;16133;49.486;12.176;2023-02-18T04:57:32;97680.97;;;8.26;100.00
29045;BME280;16133;49.486;12.176;2023-02-18T04:59:58;97682.34;;;8.30;100.00
29045;BME280;16133;49.486;12.176;2023-02-18T05:02:23;97687.78;;;8.29;100.00
29045;BME280;16133;49.486;12.176;2023-02-18T05:04:48;97670.78;;;8.31;100.00
29045;BME280;16133;49.486;12.176;2023-02-18T05:07:14;97674.09;;;8.33;100.00
29045;BME280;16133;49.486;12.176;2023-02-18T05:09:39;97667.97;;;8.33;100.00
29045;BME280;16133;49.486;12.176;2023-02-18T05:12:05;97675.91;;;8.33;100.00
29045;BME280;16133;49.486;12.176;2023-02-18T05:14:30;97676.59;;;8.35;100.00
29045;BME280;16133;49.486;12.176;2023-02-18T05:16:56;97671.94;;;8.37;100.00
29045;BME280;16133;49.486;12.176;2023-02-18T05:19:21;97672.63;;;8.39;100.00
29045;BME280;16133;49.486;12.176;2023-02-18T05:21:47;97662.69;;;8.33;100.00
29045;BME280;16133;49.486;12.176;2023-02-18T05:24:12;97671.81;;;8.38;100.00
29045;BME280;16133;49.486;12.176;2023-02-18T05:26:37;97662.06;;;8.39;100.00
29045;BME280;16133;49.486;12.176;2023-02-18T05:29:03;97666.34;;;8.40;100.00
29045;BME280;16133;49.486;12.176;2023-02-18T05:31:28;97657.75;;;8.38;100.00
29045;BME280;16133;49.486;12.176;2023-02-18T05:33:54;97662.06;;;8.39;100.00
29045;BME280;16133;49.486;12.176;2023-02-18T05:36:19;97665.22;;;8.42;100.00
29045;BME280;16133;49.486;12.176;2023-02-18T05:38:44;97659.91;;;8.42;100.00
29045;BME280;16133;49.486;12.176;2023-02-18T05:41:10;97660.91;;;8.41;100.00
29045;BME280;16133;49.486;12.176;2023-02-18T05:43:35;97667.84;;;8.42;100.00
29045;BME280;16133;49.486;12.176;2023-02-18T05:46:21;97665.34;;;8.41;100.00
29045;BME280;16133;49.486;12.176;2023-02-18T05:48:46;97664.53;;;8.40;100.00
29045;BME280;16133;49.486;12.176;2023-02-18T05:51:12;97662.91;;;8.39;100.00
29045;BME280;16133;49.486;12.176;2023-02-18T05:53:37;97665.53;;;8.39;100.00
29045;BME280;16133;49.486;12.176;2023-02-18T05:56:03;97661.72;;;8.42;100.00
29045;BME280;16133;49.486;12.176;2023-02-18T05:58:28;97651.47;;;8.39;100.00
29045;BME280;16133;49.486;12.176;2023-02-18T06:00:54;97655.09;;;8.38;100.00
29045;BME280;16133;49.486;12.176;2023-02-18T06:03:19;97652.31;;;8.39;100.00
29045;BME280;16133;49.486;12.176;2023-02-18T06:05:49;97654.97;;;8.39;100.00
29045;BME280;16133;49.486;12.176;2023-02-18T06:08:14;97644.53;;;8.38;100.00
29045;BME280;16133;49.486;12.176;2023-02-18T06:10:40;97644.22;;;8.41;100.00
29045;BME280;16133;49.486;12.176;2023-02-18T06:13:05;97641.56;;;8.41;100.00
29045;BME280;16133;49.486;12.176;2023-02-18T06:15:30;97638.91;;;8.41;100.00
29045;BME280;16133;49.486;12.176;2023-02-18T06:17:56;97649.50;;;8.41;100.00
29045;BME280;16133;49.486;12.176;2023-02-18T06:20:21;97641.75;;;8.39;100.00
29045;BME280;16133;49.486;12.176;2023-02-18T06:22:46;97647.03;;;8.39;100.00
29045;BME280;16133;49.486;12.176;2023-02-18T06:25:12;97639.25;;;8.38;100.00
29045;BME280;16133;49.486;12.176;2023-02-18T06:27:37;97636.47;;;8.39;100.00
29045;BME280;16133;49.486;12.176;2023-02-18T06:30:03;97626.53;;;8.41;100.00
29045;BME280;16133;49.486;12.176;2023-02-18T06:32:28;97623.56;;;8.44;100.00
29045;BME280;16133;49.486;12.176;2023-02-18T06:34:53;97617.94;;;8.47;100.00
29045;BME280;16133;49.486;12.176;2023-02-18T06:37:19;97619.78;;;8.47;100.00
29045;BME280;16133;49.486;12.176;2023-02-18T06:39:44;97614.31;;;8.48;100.00
29045;BME280;16133;49.486;12.176;2023-02-18T06:42:09;97617.13;;;8.47;100.00
29045;BME280;16133;49.486;12.176;2023-02-18T06:44:35;97608.53;;;8.53;100.00
29045;BME280;16133;49.486;12.176;2023-02-18T06:47:00;97605.75;;;8.54;100.00
29045;BME280;16133;49.486;12.176;2023-02-18T06:49:25;97600.31;;;8.64;100.00
29045;BME280;16133;49.486;12.176;2023-02-18T06:51:51;97592.38;;;8.64;100.00
29045;BME280;16133;49.486;12.176;2023-02-18T06:54:16;97584.09;;;8.59;100.00
29045;BME280;16133;49.486;12.176;2023-02-18T06:56:41;97589.38;;;8.59;100.00
29045;BME280;16133;49.486;12.176;2023-02-18T06:59:07;97587.75;;;8.58;100.00
29045;BME280;16133;49.486;12.176;2023-02-18T07:01:32;97582.13;;;8.61;100.00
29045;BME280;16133;49.486;12.176;2023-02-18T07:03:58;97582.63;;;8.64;100.00
29045;BME280;16133;49.486;12.176;2023-02-18T07:06:23;97567.59;;;8.73;100.00
29045;BME280;16133;49.486;12.176;2023-02-18T07:08:48;97568.56;;;8.72;100.00
29045;BME280;16133;49.486;12.176;2023-02-18T07:11:14;97576.19;;;8.75;100.00
29045;BME280;16133;49.486;12.176;2023-02-18T07:13:39;97567.91;;;8.78;100.00
29045;BME280;16133;49.486;12.176;2023-02-18T07:16:04;97569.41;;;8.81;100.00
29045;BME280;16133;49.486;12.176;2023-02-18T07:18:30;97567.41;;;8.75;100.00
29045;BME280;16133;49.486;12.176;2023-02-18T07:20:55;97566.44;;;8.84;100.00
29045;BME280;16133;49.486;12.176;2023-02-18T07:23:20;97567.41;;;8.83;100.00
29045;BME280;16133;49.486;12.176;2023-02-18T07:25:46;97564.94;;;8.89;100.00
29045;BME280;16133;49.486;12.176;2023-02-18T07:28:11;97563.63;;;9.01;100.00
29045;BME280;16133;49.486;12.176;2023-02-18T07:30:37;97570.56;;;9.02;100.00
29045;BME280;16133;49.486;12.176;2023-02-18T07:33:02;97575.84;;;9.02;100.00
29045;BME280;16133;49.486;12.176;2023-02-18T07:35:27;97581.50;;;8.99;100.00
29045;BME280;16133;49.486;12.176;2023-02-18T07:37:53;97587.44;;;9.01;100.00
29045;BME280;16133;49.486;12.176;2023-02-18T07:40:20;97582.63;;;8.97;100.00
29045;BME280;16133;49.486;12.176;2023-02-18T07:42:46;97586.94;;;8.98;100.00
29045;BME280;16133;49.486;12.176;2023-02-18T07:45:12;97598.84;;;8.94;100.00
29045;BME280;16133;49.486;12.176;2023-02-18T07:47:38;97602.31;;;9.02;100.00
29045;BME280;16133;49.486;12.176;2023-02-18T07:50:04;97605.81;;;9.11;100.00
29045;BME280;16133;49.486;12.176;2023-02-18T07:52:30;97618.84;;;9.12;100.00
29045;BME280;16133;49.486;12.176;2023-02-18T07:54:55;97608.94;;;9.06;100.00
29045;BME280;16133;49.486;12.176;2023-02-18T07:57:21;97620.53;;;9.13;100.00
29045;BME280;16133;49.486;12.176;2023-02-18T07:59:46;97636.41;;;9.13;100.00
29045;BME280;16133;49.486;12.176;2023-02-18T08:02:30;97631.13;;;9.13;100.00
29045;BME280;16133;49.486;12.176;2023-02-18T08:04:55;97645.03;;;9.24;100.00
29045;BME280;16133;49.486;12.176;2023-02-18T08:07:21;97658.25;;;9.16;100.00
29045;BME280;16133;49.486;12.176;2023-02-18T08:09:47;97673.47;;;9.13;100.00
29045;BME280;16133;49.486;12.176;2023-02-18T08:12:14;97670.47;;;9.08;100.00
29045;BME280;16133;49.486;12.176;2023-02-18T08:14:40;97653.47;;;9.11;100.00
29045;BME280;16133;49.486;12.176;2023-02-18T08:17:06;97660.41;;;9.12;100.00
29045;BME280;16133;49.486;12.176;2023-02-18T08:19:31;97673.13;;;9.17;100.00
29045;BME280;16133;49.486;12.176;2023-02-18T08:22:00;97685.38;;;9.18;100.00
29045;BME280;16133;49.486;12.176;2023-02-18T08:24:29;97664.69;;;9.21;100.00
29045;BME280;16133;49.486;12.176;2023-02-18T08:26:54;97663.88;;;9.21;100.00
29045;BME280;16133;49.486;12.176;2023-02-18T08:29:20;97652.63;;;9.19;100.00
29045;BME280;16133;49.486;12.176;2023-02-18T08:31:45;97662.38;;;9.10;100.00
29045;BME280;16133;49.486;12.176;2023-02-18T08:34:11;97657.59;;;9.30;100.00
29045;BME280;16133;49.486;12.176;2023-02-18T08:36:36;97649.31;;;9.41;100.00
29045;BME280;16133;49.486;12.176;2023-02-18T08:39:02;97663.06;;;9.44;100.00
29045;BME280;16133;49.486;12.176;2023-02-18T08:41:27;97665.84;;;9.51;100.00
29045;BME280;16133;49.486;12.176;2023-02-18T08:43:53;97687.88;;;9.59;100.00
29045;BME280;16133;49.486;12.176;2023-02-18T08:46:18;97704.94;;;9.57;100.00
29045;BME280;16133;49.486;12.176;2023-02-18T08:48:43;97708.25;;;9.67;100.00
29045;BME280;16133;49.486;12.176;2023-02-18T08:51:15;97718.69;;;9.77;100.00
29045;BME280;16133;49.486;12.176;2023-02-18T08:53:40;97720.50;;;9.84;100.00
29045;BME280;16133;49.486;12.176;2023-02-18T08:56:07;97710.69;;;10.01;100.00
29045;BME280;16133;49.486;12.176;2023-02-18T08:58:33;97701.41;;;10.21;100.00
29045;BME280;16133;49.486;12.176;2023-02-18T09:01:02;97683.59;;;10.46;100.00
29045;BME280;16133;49.486;12.176;2023-02-18T09:03:28;97688.09;;;10.76;100.00
29045;BME280;16133;49.486;12.176;2023-02-18T09:05:53;97696.78;;;10.93;100.00
29045;BME280;16133;49.486;12.176;2023-02-18T09:08:19;97704.84;;;11.08;100.00
29045;BME280;16133;49.486;12.176;2023-02-18T09:10:44;97722.28;;;11.02;100.00
29045;BME280;16133;49.486;12.176;2023-02-18T09:13:09;97743.69;;;11.00;100.00
29045;BME280;16133;49.486;12.176;2023-02-18T09:15:35;97742.19;;;11.06;100.00
29045;BME280;16133;49.486;12.176;2023-02-18T09:18:00;97735.63;;;11.17;100.00
29045;BME280;16133;49.486;12.176;2023-02-18T09:20:26;97729.88;;;11.36;100.00
29045;BME280;16133;49.486;12.176;2023-02-18T09:22:51;97733.41;;;11.51;100.00
29045;BME280;16133;49.486;12.176;2023-02-18T09:25:17;97725.22;;;11.61;100.00
29045;BME280;16133;49.486;12.176;2023-02-18T09:27:42;97730.47;;;11.69;100.00
29045;BME280;16133;49.486;12.176;2023-02-18T09:30:08;97731.28;;;11.92;100.00
29045;BME280;16133;49.486;12.176;2023-02-18T09:32:33;97733.06;;;12.00;100.00
29045;BME280;16133;49.486;12.176;2023-02-18T09:34:58;97749.81;;;12.00;100.00
29045;BME280;16133;49.486;12.176;2023-02-18T09:37:24;97752.81;;;11.82;100.00
29045;BME280;16133;49.486;12.176;2023-02-18T09:39:49;97759.03;;;11.75;100.00
29045;BME280;16133;49.486;12.176;2023-02-18T09:42:17;97764.38;;;11.67;100.00
29045;BME280;16133;49.486;12.176;2023-02-18T09:44:51;97760.66;;;11.53;100.00
29045;BME280;16133;49.486;12.176;2023-02-18T09:47:20;97765.34;;;11.43;100.00
29045;BME280;16133;49.486;12.176;2023-02-18T09:49:53;97764.97;;;11.23;100.00
29045;BME280;16133;49.486;12.176;2023-02-18T09:52:25;97759.75;;;11.38;100.00
29045;BME280;16133;49.486;12.176;2023-02-18T09:54:53;97748.66;;;11.57;100.00
29045;BME280;16133;49.486;12.176;2023-02-18T09:57:26;97750.78;;;11.62;100.00
29045;BME280;16133;49.486;12.176;2023-02-18T09:59:58;97755.19;;;11.69;100.00
29045;BME280;16133;49.486;12.176;2023-02-18T10:02:24;97753.91;;;11.65;100.00
29045;BME280;16133;49.486;12.176;2023-02-18T10:04:50;97752.06;;;11.66;100.00
29045;BME280;16133;49.486;12.176;2023-02-18T10:07:30;97756.91;;;11.62;100.00
29045;BME280;16133;49.486;12.176;2023-02-18T10:10:00;97746.47;;;11.61;100.00
29045;BME280;16133;49.486;12.176;2023-02-18T10:12:28;97742.00;;;11.61;100.00
29045;BME280;16133;49.486;12.176;2023-02-18T10:14:59;97736.94;;;11.66;100.00
29045;BME280;16133;49.486;12.176;2023-02-18T10:17:29;97734.25;;;11.74;100.00
29045;BME280;16133;49.486;12.176;2023-02-18T10:19:55;97736.59;;;11.69;100.00
29045;BME280;16133;49.486;12.176;2023-02-18T10:22:23;97728.44;;;11.93;100.00
29045;BME280;16133;49.486;12.176;2023-02-18T10:24:53;97716.66;;;12.25;100.00
29045;BME280;16133;49.486;12.176;2023-02-18T10:30:39;97714.09;;;12.46;100.00
29045;BME280;16133;49.486;12.176;2023-02-18T10:32:42;97726.94;;;12.58;100.00
29045;BME280;16133;49.486;12.176;2023-02-18T10:43:28;97716.13;;;12.30;100.00
29045;BME280;16133;49.486;12.176;2023-02-18T10:51:33;97704.06;;;11.90;100.00
29045;BME280;16133;49.486;12.176;2023-02-18T10:53:59;97719.78;;;11.77;100.00
29045;BME280;16133;49.486;12.176;2023-02-18T10:56:41;97710.72;;;11.63;100.00
29045;BME280;16133;49.486;12.176;2023-02-18T10:59:22;97711.47;;;11.57;100.00
29045;BME280;16133;49.486;12.176;2023-02-18T11:02:11;97702.47;;;11.35;100.00
29045;BME280;16133;49.486;12.176;2023-02-18T11:04:41;97703.66;;;11.10;100.00
29045;BME280;16133;49.486;12.176;2023-02-18T11:09:59;97688.47;;;10.96;100.00
29045;BME280;16133;49.486;12.176;2023-02-18T11:12:51;97694.53;;;11.04;100.00
29045;BME280;16133;49.486;12.176;2023-02-18T11:15:20;97678.50;;;10.98;100.00
29045;BME280;16133;49.486;12.176;2023-02-18T11:17:48;97680.84;;;11.16;100.00
29045;BME280;16133;49.486;12.176;2023-02-18T11:22:45;97687.63;;;11.26;100.00
29045;BME280;16133;49.486;12.176;2023-02-18T11:25:27;97680.16;;;11.22;100.00
29045;BME280;16133;49.486;12.176;2023-02-18T11:28:00;97668.00;;;11.04;100.00
29045;BME280;16133;49.486;12.176;2023-02-18T11:30:33;97660.22;;;11.03;100.00
29045;BME280;16133;49.486;12.176;2023-02-18T11:33:13;97661.44;;;10.92;100.00
29045;BME280;16133;49.486;12.176;2023-02-18T11:35:48;97662.97;;;10.87;100.00
29045;BME280;16133;49.486;12.176;2023-02-18T11:38:36;97664.19;;;10.76;100.00
29045;BME280;16133;49.486;12.176;2023-02-18T11:41:06;97668.59;;;10.61;100.00
29045;BME280;16133;49.486;12.176;2023-02-18T11:43:33;97663.56;;;10.66;100.00
29045;BME280;16133;49.486;12.176;2023-02-18T11:46:17;97656.28;;;10.68;100.00
29045;BME280;16133;49.486;12.176;2023-02-18T11:48:43;97665.91;;;10.69;100.00
29045;BME280;16133;49.486;12.176;2023-02-18T11:51:23;97650.63;;;10.71;100.00
29045;BME280;16133;49.486;12.176;2023-02-18T11:56:25;97643.25;;;10.81;100.00
29045;BME280;16133;49.486;12.176;2023-02-18T11:58:51;97644.75;;;10.84;100.00
29045;BME280;16133;49.486;12.176;2023-02-18T12:01:36;97634.28;;;10.82;100.00
29045;BME280;16133;49.486;12.176;2023-02-18T12:04:15;97624.66;;;10.81;100.00
29045;BME280;16133;49.486;12.176;2023-02-18T12:09:38;97638.81;;;10.74;100.00
29045;BME280;16133;49.486;12.176;2023-02-18T12:12:21;97626.63;;;10.65;100.00
29045;BME280;16133;49.486;12.176;2023-02-18T12:14:49;97623.59;;;10.68;100.00
29045;BME280;16133;49.486;12.176;2023-02-18T12:22:30;97601.44;;;10.83;100.00
29045;BME280;16133;49.486;12.176;2023-02-18T12:36:05;97613.47;;;10.94;100.00
29045;BME280;16133;49.486;12.176;2023-02-18T12:46:25;97602.34;;;10.98;100.00
29045;BME280;16133;49.486;12.176;2023-02-18T12:51:44;97597.16;;;11.20;100.00
29045;BME280;16133;49.486;12.176;2023-02-18T12:54:31;97583.81;;;11.28;98.89
29045;BME280;16133;49.486;12.176;2023-02-18T13:05:20;97574.72;;;11.45;95.02
29045;BME280;16133;49.486;12.176;2023-02-18T13:11:10;97571.78;;;11.69;90.09
29045;BME280;16133;49.486;12.176;2023-02-18T13:14:03;97569.94;;;11.55;92.31
29045;BME280;16133;49.486;12.176;2023-02-18T13:16:32;97576.53;;;11.44;92.18
29045;BME280;16133;49.486;12.176;2023-02-18T13:19:13;97572.81;;;11.54;90.70
29045;BME280;16133;49.486;12.176;2023-02-18T13:21:42;97566.84;;;11.66;90.30
29045;BME280;16133;49.486;12.176;2023-02-18T13:24:24;97574.97;;;11.73;88.43
29045;BME280;16133;49.486;12.176;2023-02-18T13:26:54;97565.13;;;11.73;90.51
29045;BME280;16133;49.486;12.176;2023-02-18T13:29:33;97556.44;;;11.79;90.52
29045;BME280;16133;49.486;12.176;2023-02-18T13:34:53;97545.97;;;11.92;87.20
29045;BME280;16133;49.486;12.176;2023-02-18T13:37:30;97542.38;;;12.00;85.43
29045;BME280;16133;49.486;12.176;2023-02-18T13:39:57;97538.69;;;12.16;83.07
29045;BME280;16133;49.486;12.176;2023-02-18T13:42:32;97547.97;;;12.05;85.14
29045;BME280;16133;49.486;12.176;2023-02-18T13:45:02;97552.09;;;12.08;84.76
29045;BME280;16133;49.486;12.176;2023-02-18T13:55:22;97540.50;;;11.79;85.17
29045;BME280;16133;49.486;12.176;2023-02-18T13:57:51;97542.41;;;11.85;84.55
29045;BME280;16133;49.486;12.176;2023-02-18T14:00:35;97553.28;;;12.20;81.31
29045;BME280;16133;49.486;12.176;2023-02-18T14:03:20;97545.78;;;12.09;80.65
29045;BME280;16133;49.486;12.176;2023-02-18T14:05:46;97538.16;;;12.20;80.82
29045;BME280;16133;49.486;12.176;2023-02-18T14:10:37;97521.84;;;12.09;80.07
29045;BME280;16133;49.486;12.176;2023-02-18T14:13:23;97522.59;;;12.03;81.38
29045;BME280;16133;49.486;12.176;2023-02-18T14:15:52;97521.94;;;12.01;82.11
29045;BME280;16133;49.486;12.176;2023-02-18T14:18:55;97514.06;;;12.07;81.09
29045;BME280;16133;49.486;12.176;2023-02-18T14:21:33;97516.25;;;12.04;81.56
29045;BME280;16133;49.486;12.176;2023-02-18T14:24:02;97501.03;;;11.97;81.45
29045;BME280;16133;49.486;12.176;2023-02-18T14:26:30;97499.38;;;11.96;83.36
29045;BME280;16133;49.486;12.176;2023-02-18T14:29:02;97516.63;;;12.01;81.61
29045;BME280;16133;49.486;12.176;2023-02-18T14:37:09;97527.81;;;11.67;83.83
29045;BME280;16133;49.486;12.176;2023-02-18T14:43:06;97531.50;;;11.80;83.30
29045;BME280;16133;49.486;12.176;2023-02-18T14:48:56;97540.41;;;11.73;83.74
29045;BME280;16133;49.486;12.176;2023-02-18T14:51:30;97531.00;;;11.47;87.42
29045;BME280;16133;49.486;12.176;2023-02-18T14:54:02;97545.81;;;11.27;88.88
29045;BME280;16133;49.486;12.176;2023-02-18T14:56:29;97546.94;;;10.95;92.39
29045;BME280;16133;49.486;12.176;2023-02-18T14:58:59;97553.13;;;10.88;93.48
29045;BME280;16133;49.486;12.176;2023-02-18T15:01:32;97548.34;;;10.83;94.55
29045;BME280;16133;49.486;12.176;2023-02-18T15:04:00;97547.34;;;10.84;95.95
29045;BME280;16133;49.486;12.176;2023-02-18T15:06:36;97559.81;;;10.61;98.28
29045;BME280;16133;49.486;12.176;2023-02-18T15:09:22;97556.69;;;10.27;100.00
29045;BME280;16133;49.486;12.176;2023-02-18T15:14:23;97572.63;;;10.11;100.00